createdAt,value
2023-05-12T00:01:16.828Z,100.00
2023-05-12T00:03:43.451Z,100.00
2023-05-12T00:06:10.357Z,100.00
2023-05-12T00:08:36.816Z,100.00
2023-05-12T00:11:03.355Z,100.00
2023-05-12T00:13:30.201Z,100.00
2023-05-12T00:15:59.061Z,100.00
2023-05-12T00:18:26.323Z,100.00
2023-05-12T00:20:54.409Z,100.00
2023-05-12T00:23:22.185Z,100.00
2023-05-12T00:25:49.022Z,100.00
2023-05-12T00:28:15.517Z,100.00
2023-05-12T00:30:41.911Z,100.00
2023-05-12T00:33:08.327Z,100.00
2023-05-12T00:35:34.728Z,100.00
2023-05-12T00:38:01.129Z,100.00
2023-05-12T00:40:27.523Z,100.00
2023-05-12T00:42:53.923Z,100.00
2023-05-12T00:45:21.779Z,100.00
2023-05-12T00:47:48.565Z,100.00
2023-05-12T00:50:15.354Z,100.00
2023-05-12T00:52:42.540Z,100.00
2023-05-12T00:55:09.359Z,100.00
2023-05-12T00:57:35.742Z,100.00
2023-05-12T01:00:02.177Z,100.00
2023-05-12T01:02:28.968Z,100.00
2023-05-12T01:04:55.455Z,100.00
2023-05-12T01:07:23.050Z,100.00
2023-05-12T01:09:54.526Z,100.00
2023-05-12T01:12:21.602Z,100.00
2023-05-12T01:14:48.544Z,100.00
2023-05-12T01:17:20.800Z,100.00
2023-05-12T01:19:59.967Z,100.00
2023-05-12T01:22:31.250Z,100.00
2023-05-12T01:24:59.784Z,100.00
2023-05-12T01:27:27.434Z,100.00
2023-05-12T01:29:57.764Z,100.00
2023-05-12T01:32:24.231Z,100.00
2023-05-12T01:34:50.680Z,100.00
2023-05-12T01:37:17.101Z,100.00
2023-05-12T01:39:43.703Z,100.00
2023-05-12T01:42:10.263Z,100.00
2023-05-12T01:44:36.677Z,100.00
2023-05-12T01:47:03.153Z,100.00
2023-05-12T01:49:29.596Z,100.00
2023-05-12T01:51:56.101Z,100.00
2023-05-12T01:54:22.701Z,100.00
2023-05-12T01:56:49.140Z,100.00
2023-05-12T01:59:15.726Z,100.00
2023-05-12T02:01:42.342Z,100.00
2023-05-12T02:04:09.135Z,100.00
2023-05-12T02:06:35.923Z,100.00
2023-05-12T02:09:02.674Z,100.00
2023-05-12T02:11:29.076Z,100.00
2023-05-12T02:13:55.472Z,100.00
2023-05-12T02:16:22.026Z,100.00
2023-05-12T02:18:48.490Z,100.00
2023-05-12T02:21:14.965Z,100.00
2023-05-12T02:23:41.448Z,100.00
2023-05-12T02:26:07.864Z,100.00
2023-05-12T02:28:34.254Z,100.00
2023-05-12T02:31:00.692Z,100.00
2023-05-12T02:33:27.089Z,100.00
2023-05-12T02:35:53.500Z,100.00
2023-05-12T02:38:19.903Z,100.00
2023-05-12T02:40:46.659Z,100.00
2023-05-12T02:43:13.162Z,100.00
2023-05-12T02:45:40.127Z,100.00
2023-05-12T02:48:06.693Z,100.00
2023-05-12T02:50:33.196Z,100.00
2023-05-12T02:52:59.653Z,100.00
2023-05-12T02:55:26.211Z,100.00
2023-05-12T02:57:53.421Z,100.00
2023-05-12T03:00:20.146Z,100.00
2023-05-12T03:02:46.761Z,100.00
2023-05-12T03:05:13.338Z,100.00
2023-05-12T03:07:39.904Z,100.00
2023-05-12T03:10:06.936Z,100.00
2023-05-12T03:12:33.367Z,100.00
2023-05-12T03:14:59.788Z,100.00
2023-05-12T03:17:26.429Z,100.00
2023-05-12T03:19:52.864Z,100.00
2023-05-12T03:22:19.377Z,100.00
2023-05-12T03:24:46.385Z,100.00
2023-05-12T03:27:12.777Z,100.00
2023-05-12T03:29:39.218Z,100.00
2023-05-12T03:32:06.177Z,100.00
2023-05-12T03:34:32.555Z,100.00
2023-05-12T03:36:58.914Z,100.00
2023-05-12T03:39:25.410Z,100.00
2023-05-12T03:41:51.844Z,100.00
2023-05-12T03:44:18.717Z,100.00
2023-05-12T03:46:45.514Z,100.00
2023-05-12T03:49:12.833Z,100.00
2023-05-12T03:51:39.353Z,100.00
2023-05-12T03:54:05.740Z,100.00
2023-05-12T03:56:32.178Z,100.00
2023-05-12T03:58:58.586Z,100.00
2023-05-12T04:01:24.982Z,100.00
2023-05-12T04:03:51.519Z,100.00
2023-05-12T04:06:17.974Z,100.00
2023-05-12T04:08:44.382Z,100.00
2023-05-12T04:11:11.003Z,100.00
2023-05-12T04:13:37.424Z,100.00
2023-05-12T04:16:04.254Z,100.00
2023-05-12T04:18:30.866Z,100.00
2023-05-12T04:20:57.351Z,100.00
2023-05-12T04:23:23.985Z,100.00
2023-05-12T04:25:50.491Z,100.00
2023-05-12T04:28:16.883Z,100.00
2023-05-12T04:30:43.350Z,100.00
2023-05-12T04:33:10.092Z,100.00
2023-05-12T04:35:36.832Z,100.00
2023-05-12T04:38:03.636Z,100.00
2023-05-12T04:40:32.079Z,100.00
2023-05-12T04:43:00.581Z,100.00
2023-05-12T04:45:27.067Z,100.00
2023-05-12T04:47:53.528Z,100.00
2023-05-12T04:50:20.077Z,100.00
2023-05-12T04:52:46.554Z,100.00
2023-05-12T04:55:12.930Z,100.00
2023-05-12T04:57:41.268Z,100.00
2023-05-12T05:00:09.072Z,100.00
2023-05-12T05:02:35.875Z,100.00
2023-05-12T05:05:02.426Z,100.00
2023-05-12T05:07:28.878Z,100.00
2023-05-12T05:09:55.251Z,100.00
2023-05-12T05:12:21.671Z,100.00
2023-05-12T05:14:48.071Z,100.00
2023-05-12T05:17:14.708Z,100.00
2023-05-12T05:19:54.987Z,100.00
2023-05-12T05:22:25.210Z,100.00
2023-05-12T05:24:51.876Z,100.00
2023-05-12T05:27:18.579Z,100.00
2023-05-12T05:29:44.980Z,100.00
2023-05-12T05:32:11.405Z,100.00
2023-05-12T05:34:38.236Z,100.00
2023-05-12T05:37:05.045Z,100.00
2023-05-12T05:39:31.544Z,100.00
2023-05-12T05:41:58.194Z,100.00
2023-05-12T05:44:25.157Z,100.00
2023-05-12T05:46:51.833Z,100.00
2023-05-12T05:49:18.586Z,100.00
2023-05-12T05:51:44.953Z,100.00
2023-05-12T05:54:12.031Z,100.00
2023-05-12T05:56:38.582Z,100.00
2023-05-12T05:59:05.288Z,100.00
2023-05-12T06:01:32.423Z,100.00
2023-05-12T06:03:59.198Z,100.00
2023-05-12T06:06:26.009Z,100.00
2023-05-12T06:08:52.449Z,100.00
2023-05-12T06:11:18.830Z,100.00
2023-05-12T06:13:45.320Z,100.00
2023-05-12T06:16:11.789Z,100.00
2023-05-12T06:18:38.630Z,100.00
2023-05-12T06:21:06.149Z,100.00
2023-05-12T06:23:32.618Z,100.00
2023-05-12T06:25:59.198Z,100.00
2023-05-12T06:28:25.605Z,100.00
2023-05-12T06:30:51.989Z,100.00
2023-05-12T06:33:18.430Z,100.00
2023-05-12T06:35:44.858Z,100.00
2023-05-12T06:38:11.257Z,100.00
2023-05-12T06:40:37.658Z,100.00
2023-05-12T06:43:04.070Z,100.00
2023-05-12T06:45:30.730Z,100.00
2023-05-12T06:47:57.838Z,100.00
2023-05-12T06:50:24.340Z,100.00
2023-05-12T06:52:50.853Z,100.00
2023-05-12T06:55:20.049Z,100.00
2023-05-12T06:57:46.636Z,100.00
2023-05-12T07:00:13.876Z,100.00
2023-05-12T07:02:40.542Z,100.00
2023-05-12T07:05:07.251Z,100.00
2023-05-12T07:07:33.688Z,100.00
2023-05-12T07:10:00.310Z,100.00
2023-05-12T07:12:26.937Z,100.00
2023-05-12T07:14:53.383Z,100.00
2023-05-12T07:17:19.739Z,100.00
2023-05-12T07:19:46.113Z,100.00
2023-05-12T07:22:17.580Z,100.00
2023-05-12T07:24:44.208Z,100.00
2023-05-12T07:27:10.934Z,100.00
2023-05-12T07:29:37.675Z,100.00
2023-05-12T07:32:04.858Z,100.00
2023-05-12T07:34:32.509Z,100.00
2023-05-12T07:36:59.563Z,100.00
2023-05-12T07:39:25.933Z,100.00
2023-05-12T07:41:54.011Z,100.00
2023-05-12T07:44:20.753Z,99.52
2023-05-12T07:46:47.251Z,98.71
2023-05-12T07:49:13.733Z,98.81
2023-05-12T07:51:40.143Z,100.00
2023-05-12T07:54:07.313Z,100.00
2023-05-12T07:56:33.870Z,98.77
2023-05-12T07:59:00.306Z,100.00
2023-05-12T08:01:26.724Z,96.84
2023-05-12T08:03:53.192Z,96.92
2023-05-12T08:06:19.629Z,97.15
2023-05-12T08:08:46.152Z,96.39
2023-05-12T08:11:12.775Z,95.63
2023-05-12T08:13:39.597Z,95.10
2023-05-12T08:16:06.277Z,93.11
2023-05-12T08:18:32.817Z,94.35
2023-05-12T08:20:59.235Z,93.32
2023-05-12T08:23:25.726Z,91.96
2023-05-12T08:25:52.098Z,92.23
2023-05-12T08:28:18.529Z,94.57
2023-05-12T08:30:45.555Z,91.34
2023-05-12T08:33:12.670Z,93.26
2023-05-12T08:35:39.590Z,92.81
2023-05-12T08:38:06.614Z,90.22
2023-05-12T08:40:54.480Z,92.04
2023-05-12T08:43:26.288Z,89.88
2023-05-12T08:45:57.459Z,90.84
2023-05-12T08:48:29.162Z,90.32
2023-05-12T08:50:57.853Z,87.48
2023-05-12T08:53:25.728Z,86.85
2023-05-12T08:57:08.113Z,87.26
2023-05-12T08:58:42.209Z,88.12
2023-05-12T09:01:11.699Z,80.42
2023-05-12T09:03:38.998Z,81.92
2023-05-12T09:06:06.635Z,79.24
2023-05-12T09:08:34.934Z,78.50
2023-05-12T09:11:02.488Z,79.76
2023-05-12T09:14:00.967Z,78.10
2023-05-12T09:16:30.232Z,79.91
2023-05-12T09:18:58.857Z,80.77
2023-05-12T09:21:26.460Z,81.43
2023-05-12T09:24:06.082Z,82.32
2023-05-12T09:26:45.337Z,77.22
2023-05-12T09:29:20.838Z,75.11
2023-05-12T09:32:00.270Z,74.47
2023-05-12T09:34:31.766Z,76.42
2023-05-12T09:37:01.130Z,74.98
2023-05-12T09:39:28.844Z,77.80
2023-05-12T09:41:55.831Z,75.64
2023-05-12T09:44:23.977Z,75.66
2023-05-12T09:46:51.910Z,75.11
2023-05-12T09:49:20.366Z,74.11
2023-05-12T09:51:59.219Z,72.33
2023-05-12T09:54:29.848Z,75.99
2023-05-12T09:57:00.341Z,76.72
2023-05-12T09:59:31.391Z,75.45
2023-05-12T10:02:00.784Z,75.68
2023-05-12T10:04:29.975Z,72.18
2023-05-12T10:06:58.411Z,73.23
2023-05-12T10:09:39.174Z,71.41
2023-05-12T10:12:06.490Z,71.34
2023-05-12T10:14:33.766Z,74.47
2023-05-12T10:17:00.890Z,72.38
2023-05-12T10:19:32.935Z,70.60
2023-05-12T10:22:00.529Z,68.39
2023-05-12T10:24:27.585Z,69.76
2023-05-12T10:26:57.572Z,70.65
2023-05-12T10:29:29.980Z,69.17
2023-05-12T10:31:57.638Z,68.93
2023-05-12T10:34:30.620Z,72.28
2023-05-12T10:36:58.296Z,66.94
2023-05-12T10:39:29.656Z,67.85
2023-05-12T10:42:06.437Z,66.71
2023-05-12T10:44:32.963Z,68.04
2023-05-12T10:47:02.143Z,69.64
2023-05-12T10:49:40.042Z,70.01
2023-05-12T10:52:07.460Z,64.43
2023-05-12T10:54:44.303Z,64.19
2023-05-12T10:57:18.203Z,64.39
2023-05-12T11:00:01.610Z,67.01
2023-05-12T11:02:36.244Z,63.35
2023-05-12T11:05:12.471Z,65.29
2023-05-12T11:07:39.868Z,65.29
2023-05-12T11:10:07.944Z,65.10
2023-05-12T11:12:37.839Z,66.44
2023-05-12T11:15:06.626Z,61.84
2023-05-12T11:17:33.563Z,62.90
2023-05-12T11:20:01.355Z,62.46
2023-05-12T11:22:28.277Z,62.43
2023-05-12T11:24:54.748Z,63.05
2023-05-12T11:27:23.153Z,60.94
2023-05-12T11:29:58.270Z,62.64
2023-05-12T11:32:24.821Z,63.42
2023-05-12T11:34:51.325Z,61.39
2023-05-12T11:37:21.048Z,63.28
2023-05-12T11:39:48.009Z,62.45
2023-05-12T11:42:16.300Z,63.45
2023-05-12T11:44:49.160Z,61.93
2023-05-12T11:47:16.662Z,61.17
2023-05-12T11:49:51.785Z,63.28
2023-05-12T11:52:20.222Z,61.02
2023-05-12T11:54:51.539Z,63.22
2023-05-12T11:57:27.489Z,61.15
2023-05-12T12:00:07.183Z,61.64
2023-05-12T12:02:34.463Z,61.71
2023-05-12T12:05:01.200Z,61.92
2023-05-12T12:07:36.953Z,68.04
2023-05-12T12:10:13.841Z,60.85
2023-05-12T12:12:41.175Z,62.92
2023-05-12T12:15:08.575Z,62.20
2023-05-12T12:17:34.948Z,57.22
2023-05-12T12:20:01.587Z,56.27
2023-05-12T12:22:28.049Z,56.00
2023-05-12T12:24:54.406Z,56.24
2023-05-12T12:27:20.758Z,59.38
2023-05-12T12:29:47.268Z,60.52
2023-05-12T12:32:13.670Z,61.87
2023-05-12T12:34:41.329Z,60.68
2023-05-12T12:37:07.785Z,61.85
2023-05-12T12:39:34.222Z,61.73
2023-05-12T12:42:00.570Z,59.92
2023-05-12T12:44:27.332Z,58.09
2023-05-12T12:46:54.004Z,59.07
2023-05-12T12:49:20.445Z,61.19
2023-05-12T12:51:47.377Z,62.90
2023-05-12T12:54:15.217Z,64.34
2023-05-12T12:56:43.148Z,61.49
2023-05-12T12:59:09.576Z,62.26
2023-05-12T13:01:36.099Z,65.18
2023-05-12T13:04:02.754Z,62.25
2023-05-12T13:06:29.240Z,62.98
2023-05-12T13:08:56.340Z,61.36
2023-05-12T13:11:22.748Z,62.73
2023-05-12T13:13:49.118Z,62.91
2023-05-12T13:16:15.860Z,60.08
2023-05-12T13:18:42.374Z,62.79
2023-05-12T13:21:08.840Z,60.20
2023-05-12T13:23:35.320Z,60.47
2023-05-12T13:26:01.715Z,62.37
2023-05-12T13:28:28.895Z,63.56
2023-05-12T13:30:55.409Z,60.56
2023-05-12T13:33:22.026Z,60.79
2023-05-12T13:35:48.457Z,57.55
2023-05-12T13:38:15.160Z,57.17
2023-05-12T13:40:41.829Z,61.85
2023-05-12T13:43:08.436Z,59.56
2023-05-12T13:45:34.896Z,57.70
2023-05-12T13:48:01.350Z,58.59
2023-05-12T13:50:27.806Z,59.33
2023-05-12T13:52:54.242Z,56.06
2023-05-12T13:55:21.643Z,56.96
2023-05-12T13:57:48.879Z,59.18
2023-05-12T14:00:17.208Z,56.88
2023-05-12T14:02:43.843Z,57.34
2023-05-12T14:05:10.684Z,60.83
2023-05-12T14:07:37.419Z,57.49
2023-05-12T14:10:04.003Z,55.41
2023-05-12T14:12:31.291Z,55.63
2023-05-12T14:15:07.361Z,59.61
2023-05-12T14:17:44.341Z,59.44
2023-05-12T14:20:11.512Z,57.46
2023-05-12T14:22:37.862Z,55.69
2023-05-12T14:25:04.861Z,55.96
2023-05-12T14:27:31.249Z,54.23
2023-05-12T14:29:57.717Z,54.02
2023-05-12T14:32:24.185Z,53.98
2023-05-12T14:34:50.571Z,53.27
2023-05-12T14:37:16.958Z,57.07
2023-05-12T14:39:43.752Z,53.96
2023-05-12T14:42:10.142Z,55.42
2023-05-12T14:44:38.847Z,55.54
2023-05-12T14:47:07.451Z,46.83
2023-05-12T14:49:35.173Z,51.60
2023-05-12T14:52:02.492Z,49.58
2023-05-12T14:54:28.868Z,48.72
2023-05-12T14:56:55.429Z,51.04
2023-05-12T14:59:22.076Z,54.15
2023-05-12T15:01:48.621Z,54.72
2023-05-12T15:04:15.160Z,57.02
2023-05-12T15:06:41.719Z,48.70
2023-05-12T15:09:08.435Z,51.44
2023-05-12T15:11:34.799Z,51.80
2023-05-12T15:14:01.390Z,59.00
2023-05-12T15:16:28.050Z,53.61
2023-05-12T15:18:54.650Z,54.71
2023-05-12T15:21:21.126Z,57.06
2023-05-12T15:23:47.793Z,54.14
2023-05-12T15:26:31.220Z,51.12
2023-05-12T15:28:59.495Z,52.64
2023-05-12T15:31:28.679Z,51.33
2023-05-12T15:33:56.422Z,49.37
2023-05-12T15:36:22.876Z,48.98
2023-05-12T15:38:49.330Z,49.14
2023-05-12T15:41:15.768Z,50.96
2023-05-12T15:43:42.421Z,56.00
2023-05-12T15:46:10.761Z,59.88
2023-05-12T15:48:37.522Z,63.66
2023-05-12T15:51:04.170Z,63.85
2023-05-12T15:53:33.512Z,63.77
2023-05-12T15:56:04.154Z,64.80
2023-05-12T15:58:31.394Z,64.14
2023-05-12T16:00:58.292Z,63.83
2023-05-12T16:03:24.882Z,61.64
2023-05-12T16:05:51.857Z,64.23
2023-05-12T16:08:18.789Z,62.88
2023-05-12T16:10:45.302Z,63.89
2023-05-12T16:13:11.723Z,63.71
2023-05-12T16:15:38.374Z,65.31
2023-05-12T16:18:06.954Z,64.41
2023-05-12T16:20:35.096Z,64.19
2023-05-12T16:23:02.340Z,65.02
2023-05-12T16:25:29.061Z,63.23
2023-05-12T16:27:55.896Z,63.27
2023-05-12T16:30:22.347Z,65.26
2023-05-12T16:32:48.742Z,64.56
2023-05-12T16:35:15.174Z,64.38
2023-05-12T16:37:41.620Z,63.93
2023-05-12T16:40:09.518Z,63.24
2023-05-12T16:42:36.527Z,63.74
2023-05-12T16:45:03.093Z,63.19
2023-05-12T16:47:29.757Z,62.79
2023-05-12T16:49:58.073Z,62.60
2023-05-12T16:52:25.273Z,63.48
2023-05-12T16:54:51.841Z,64.16
2023-05-12T16:57:18.739Z,63.77
2023-05-12T16:59:45.437Z,64.93
2023-05-12T17:02:11.892Z,64.83
2023-05-12T17:04:38.299Z,65.18
2023-05-12T17:07:04.889Z,65.57
2023-05-12T17:09:31.301Z,66.60
2023-05-12T17:11:57.697Z,66.44
2023-05-12T17:14:24.137Z,65.94
2023-05-12T17:16:50.506Z,66.28
2023-05-12T17:19:17.005Z,67.84
2023-05-12T17:21:43.432Z,68.30
2023-05-12T17:24:10.042Z,68.94
2023-05-12T17:26:36.476Z,68.00
2023-05-12T17:29:03.100Z,68.45
2023-05-12T17:31:29.673Z,68.94
2023-05-12T17:33:56.209Z,69.30
2023-05-12T17:36:23.180Z,69.81
2023-05-12T17:38:51.049Z,69.94
2023-05-12T17:41:18.151Z,70.66
2023-05-12T17:43:44.565Z,70.07
2023-05-12T17:46:10.934Z,70.76
2023-05-12T17:48:38.500Z,70.85
2023-05-12T17:51:05.311Z,70.08
2023-05-12T17:53:32.362Z,68.47
2023-05-12T17:55:58.954Z,68.69
2023-05-12T17:58:25.469Z,66.42
2023-05-12T18:00:52.202Z,67.06
2023-05-12T18:03:23.275Z,65.09
2023-05-12T18:05:52.082Z,63.23
2023-05-12T18:08:18.935Z,62.16
2023-05-12T18:10:45.660Z,60.06
2023-05-12T18:13:12.176Z,59.83
2023-05-12T18:15:38.583Z,58.00
2023-05-12T18:18:09.067Z,58.05
2023-05-12T18:20:35.647Z,58.83
2023-05-12T18:23:02.155Z,58.56
2023-05-12T18:25:28.566Z,58.90
2023-05-12T18:27:54.936Z,58.03
2023-05-12T18:30:21.330Z,58.12
2023-05-12T18:32:47.842Z,59.00
2023-05-12T18:35:14.324Z,58.77
2023-05-12T18:37:40.762Z,59.45
2023-05-12T18:40:08.269Z,59.54
2023-05-12T18:42:34.915Z,58.72
2023-05-12T18:45:01.643Z,59.77
2023-05-12T18:47:28.561Z,59.81
2023-05-12T18:49:55.082Z,60.17
2023-05-12T18:52:21.488Z,60.31
2023-05-12T18:54:49.671Z,61.13
2023-05-12T18:57:16.892Z,61.11
2023-05-12T18:59:43.513Z,60.82
2023-05-12T19:02:10.207Z,61.25
2023-05-12T19:04:37.001Z,61.65
2023-05-12T19:07:03.952Z,62.34
2023-05-12T19:09:30.501Z,62.84
2023-05-12T19:11:56.893Z,63.32
2023-05-12T19:14:23.781Z,63.64
2023-05-12T19:16:50.301Z,64.25
2023-05-12T19:19:17.272Z,64.93
2023-05-12T19:21:43.948Z,65.87
2023-05-12T19:24:10.646Z,66.20
2023-05-12T19:26:37.397Z,66.61
2023-05-12T19:29:04.421Z,67.04
2023-05-12T19:31:31.210Z,67.64
2023-05-12T19:33:57.674Z,68.51
2023-05-12T19:36:24.211Z,69.20
2023-05-12T19:38:50.651Z,69.29
2023-05-12T19:41:17.043Z,69.93
2023-05-12T19:43:43.499Z,70.46
2023-05-12T19:46:09.971Z,70.99
2023-05-12T19:48:36.459Z,71.35
2023-05-12T19:51:03.088Z,71.99
2023-05-12T19:53:29.534Z,73.23
2023-05-12T19:55:56.629Z,73.66
2023-05-12T19:58:23.194Z,74.01
2023-05-12T20:00:49.716Z,74.92
2023-05-12T20:03:16.216Z,74.74
2023-05-12T20:05:42.732Z,75.17
2023-05-12T20:08:09.197Z,75.28
2023-05-12T20:10:35.734Z,75.40
2023-05-12T20:13:05.392Z,75.45
2023-05-12T20:15:33.962Z,75.59
2023-05-12T20:18:00.857Z,76.23
2023-05-12T20:20:27.306Z,76.65
2023-05-12T20:22:53.768Z,76.99
2023-05-12T20:25:20.410Z,77.64
2023-05-12T20:27:48.002Z,77.62
2023-05-12T20:30:14.591Z,77.84
2023-05-12T20:32:41.061Z,78.07
2023-05-12T20:35:07.903Z,78.44
2023-05-12T20:37:34.331Z,78.73
2023-05-12T20:40:00.788Z,78.76
2023-05-12T20:42:27.227Z,78.96
2023-05-12T20:44:53.837Z,78.71
2023-05-12T20:47:20.409Z,78.80
2023-05-12T20:49:47.129Z,79.11
2023-05-12T20:52:13.594Z,79.01
2023-05-12T20:54:39.966Z,79.38
2023-05-12T20:57:06.432Z,79.03
2023-05-12T20:59:32.896Z,78.40
2023-05-12T21:01:59.295Z,78.25
2023-05-12T21:04:25.979Z,78.18
2023-05-12T21:06:53.802Z,77.89
2023-05-12T21:09:20.401Z,78.24
2023-05-12T21:11:47.206Z,78.15
2023-05-12T21:14:13.658Z,78.21
2023-05-12T21:16:40.264Z,78.53
2023-05-12T21:19:07.108Z,78.82
2023-05-12T21:21:33.764Z,79.48
2023-05-12T21:24:00.200Z,78.27
2023-05-12T21:26:27.208Z,78.85
2023-05-12T21:28:53.643Z,79.32
2023-05-12T21:31:20.114Z,79.47
2023-05-12T21:33:46.729Z,78.37
2023-05-12T21:36:13.363Z,78.58
2023-05-12T21:38:39.779Z,78.10
2023-05-12T21:41:06.285Z,78.27
2023-05-12T21:43:32.737Z,77.75
2023-05-12T21:46:03.683Z,78.18
2023-05-12T21:48:30.483Z,78.16
2023-05-12T21:50:58.852Z,77.91
2023-05-12T21:53:25.384Z,78.55
2023-05-12T21:55:51.773Z,78.29
2023-05-12T21:58:18.368Z,78.35
2023-05-12T22:00:44.817Z,77.29
2023-05-12T22:03:11.299Z,77.11
2023-05-12T22:05:37.854Z,76.41
2023-05-12T22:08:04.315Z,77.02
2023-05-12T22:10:31.945Z,76.59
2023-05-12T22:12:58.346Z,76.20
2023-05-12T22:15:24.740Z,77.43
2023-05-12T22:17:51.630Z,76.20
2023-05-12T22:20:18.948Z,76.69
2023-05-12T22:22:45.629Z,76.26
2023-05-12T22:25:12.127Z,76.50
2023-05-12T22:27:38.578Z,76.14
2023-05-12T22:30:05.948Z,75.85
2023-05-12T22:32:32.379Z,75.10
2023-05-12T22:34:58.750Z,75.20
2023-05-12T22:37:26.432Z,73.87
2023-05-12T22:39:52.823Z,74.33
2023-05-12T22:42:19.491Z,74.69
2023-05-12T22:44:45.958Z,74.61
2023-05-12T22:47:12.654Z,73.66
2023-05-12T22:49:39.148Z,73.01
2023-05-12T22:52:06.074Z,72.85
2023-05-12T22:54:32.557Z,72.78
2023-05-12T22:56:58.897Z,71.92
2023-05-12T22:59:25.397Z,72.44
2023-05-12T23:01:51.814Z,71.91
2023-05-12T23:04:18.253Z,71.86
2023-05-12T23:06:44.688Z,71.34
2023-05-12T23:09:11.363Z,71.64
2023-05-12T23:11:37.752Z,71.64
2023-05-12T23:14:04.194Z,72.02
2023-05-12T23:16:30.723Z,72.08
2023-05-12T23:18:57.215Z,71.48
2023-05-12T23:21:23.651Z,71.43
2023-05-12T23:23:50.057Z,70.79
2023-05-12T23:26:16.409Z,71.05
2023-05-12T23:28:42.773Z,71.42
2023-05-12T23:31:10.184Z,71.21
2023-05-12T23:33:36.808Z,70.74
2023-05-12T23:36:03.566Z,70.74
2023-05-12T23:38:29.928Z,70.98
2023-05-12T23:40:56.297Z,69.62
2023-05-12T23:43:22.788Z,69.06
2023-05-12T23:45:49.368Z,69.18
2023-05-12T23:48:15.793Z,68.92
2023-05-12T23:50:42.265Z,69.50
2023-05-12T23:53:08.778Z,70.37
2023-05-12T23:55:36.886Z,70.66
2023-05-12T23:58:03.353Z,71.13
